createdAt,value
2023-05-09T00:00:12.492Z,16.13
2023-05-09T00:02:39.647Z,15.75
2023-05-09T00:05:07.837Z,15.57
2023-05-09T00:07:34.367Z,17.17
2023-05-09T00:10:01.364Z,16.33
2023-05-09T00:12:28.421Z,15.80
2023-05-09T00:14:56.774Z,16.80
2023-05-09T00:17:26.785Z,16.83
2023-05-09T00:19:53.818Z,15.83
2023-05-09T00:22:23.753Z,15.77
2023-05-09T00:24:50.813Z,15.35
2023-05-09T00:27:17.181Z,15.30
2023-05-09T00:29:43.611Z,15.98
2023-05-09T00:32:10.920Z,16.03
2023-05-09T00:34:37.344Z,16.27
2023-05-09T00:37:03.707Z,15.90
2023-05-09T00:39:30.191Z,17.15
2023-05-09T00:41:57.352Z,16.50
2023-05-09T00:44:23.837Z,17.60
2023-05-09T00:46:50.466Z,17.75
2023-05-09T00:49:16.965Z,17.75
2023-05-09T00:51:43.445Z,17.33
2023-05-09T00:54:10.043Z,16.38
2023-05-09T00:56:37.164Z,18.07
2023-05-09T00:59:03.962Z,17.92
2023-05-09T01:01:30.833Z,18.17
2023-05-09T01:03:57.868Z,17.75
2023-05-09T01:07:02.975Z,18.55
2023-05-09T01:09:49.496Z,17.10
2023-05-09T01:12:27.567Z,16.48
2023-05-09T01:14:59.895Z,18.33
2023-05-09T01:17:59.829Z,18.63
2023-05-09T01:20:37.926Z,17.25
2023-05-09T01:23:13.549Z,18.03
2023-05-09T01:25:42.915Z,17.60
2023-05-09T01:28:22.453Z,18.60
2023-05-09T01:30:51.778Z,17.58
2023-05-09T01:33:21.149Z,18.63
2023-05-09T01:35:53.797Z,18.80
2023-05-09T01:38:23.598Z,18.75
2023-05-09T01:40:54.176Z,18.50
2023-05-09T01:43:23.651Z,18.30
2023-05-09T01:45:52.518Z,18.02
2023-05-09T01:48:21.020Z,18.67
2023-05-09T01:50:49.017Z,18.30
2023-05-09T01:53:17.464Z,16.98
2023-05-09T01:55:44.719Z,17.77
2023-05-09T01:58:12.316Z,16.20
2023-05-09T02:00:39.074Z,17.93
2023-05-09T02:03:05.901Z,19.13
2023-05-09T02:05:33.258Z,18.77
2023-05-09T02:07:59.842Z,18.42
2023-05-09T02:10:29.633Z,19.10
2023-05-09T02:12:57.460Z,19.80
2023-05-09T02:15:24.500Z,18.73
2023-05-09T02:17:50.940Z,18.63
2023-05-09T02:20:17.593Z,19.73
2023-05-09T02:22:44.502Z,18.63
2023-05-09T02:25:15.425Z,18.83
2023-05-09T02:27:45.398Z,18.50
2023-05-09T02:30:25.386Z,19.33
2023-05-09T02:32:57.622Z,17.88
2023-05-09T02:35:27.184Z,18.13
2023-05-09T02:37:54.587Z,17.93
2023-05-09T02:40:21.998Z,17.25
2023-05-09T02:42:48.553Z,18.10
2023-05-09T02:45:15.160Z,16.92
2023-05-09T02:47:42.123Z,18.70
2023-05-09T02:50:08.943Z,16.47
2023-05-09T02:52:35.455Z,16.50
2023-05-09T02:55:02.189Z,17.60
2023-05-09T02:57:28.573Z,17.73
2023-05-09T02:59:54.897Z,17.70
2023-05-09T03:02:21.397Z,17.77
2023-05-09T03:04:47.856Z,18.40
2023-05-09T03:07:14.512Z,16.42
2023-05-09T03:09:41.385Z,17.77
2023-05-09T03:12:08.004Z,18.23
2023-05-09T03:14:34.400Z,18.87
2023-05-09T03:17:00.824Z,18.73
2023-05-09T03:19:27.265Z,20.13
2023-05-09T03:21:53.605Z,18.80
2023-05-09T03:24:20.336Z,18.48
2023-05-09T03:26:46.764Z,19.80
2023-05-09T03:29:13.150Z,19.23
2023-05-09T03:31:39.581Z,18.38
2023-05-09T03:34:06.324Z,18.27
2023-05-09T03:36:33.072Z,18.00
2023-05-09T03:38:59.443Z,18.67
2023-05-09T03:41:26.200Z,18.02
2023-05-09T03:43:52.511Z,17.58
2023-05-09T03:46:18.882Z,18.55
2023-05-09T03:48:45.290Z,18.67
2023-05-09T03:51:11.693Z,17.73
2023-05-09T03:53:38.120Z,18.27
2023-05-09T03:56:04.654Z,19.45
2023-05-09T03:58:31.575Z,17.92
2023-05-09T04:00:58.081Z,18.13
2023-05-09T04:03:24.703Z,17.63
2023-05-09T04:05:51.190Z,17.50
2023-05-09T04:08:17.673Z,17.17
2023-05-09T04:10:44.524Z,17.38
2023-05-09T04:13:11.177Z,16.98
2023-05-09T04:15:37.649Z,16.97
2023-05-09T04:18:04.368Z,16.70
2023-05-09T04:20:31.510Z,15.45
2023-05-09T04:22:59.008Z,16.40
2023-05-09T04:25:26.040Z,16.25
2023-05-09T04:27:52.807Z,16.50
2023-05-09T04:30:19.289Z,17.13
2023-05-09T04:32:46.149Z,15.88
2023-05-09T04:35:14.180Z,15.60
2023-05-09T04:37:41.717Z,16.77
2023-05-09T04:40:09.328Z,15.37
2023-05-09T04:42:36.024Z,16.60
2023-05-09T04:45:03.034Z,16.05
2023-05-09T04:47:29.487Z,16.02
2023-05-09T04:49:55.930Z,14.73
2023-05-09T04:52:22.670Z,14.17
2023-05-09T04:54:49.153Z,14.55
2023-05-09T04:57:18.506Z,14.75
2023-05-09T04:59:45.952Z,13.57
2023-05-09T05:02:12.917Z,14.15
2023-05-09T05:04:39.352Z,13.87
2023-05-09T05:07:05.834Z,13.27
2023-05-09T05:09:32.225Z,13.48
2023-05-09T05:12:02.285Z,13.40
2023-05-09T05:14:29.665Z,13.23
2023-05-09T05:16:56.069Z,13.40
2023-05-09T05:19:22.657Z,13.80
2023-05-09T05:21:49.043Z,13.00
2023-05-09T05:24:15.414Z,12.88
2023-05-09T05:26:41.792Z,12.40
2023-05-09T05:29:08.383Z,12.10
2023-05-09T05:31:34.809Z,11.88
2023-05-09T05:34:01.244Z,12.00
2023-05-09T05:36:27.645Z,11.90
2023-05-09T05:38:54.013Z,12.73
2023-05-09T05:41:20.855Z,12.07
2023-05-09T05:43:47.259Z,12.05
2023-05-09T05:46:13.631Z,11.27
2023-05-09T05:48:40.082Z,11.35
2023-05-09T05:51:06.501Z,11.63
2023-05-09T05:53:33.000Z,10.07
2023-05-09T05:55:59.401Z,11.10
2023-05-09T05:58:26.457Z,9.88
2023-05-09T06:00:53.161Z,10.25
2023-05-09T06:03:19.856Z,10.25
2023-05-09T06:05:47.399Z,9.80
2023-05-09T06:08:13.852Z,10.00
2023-05-09T06:10:40.346Z,9.32
2023-05-09T06:13:07.174Z,10.27
2023-05-09T06:15:33.651Z,9.70
2023-05-09T06:18:00.257Z,10.23
2023-05-09T06:20:27.104Z,10.50
2023-05-09T06:22:53.484Z,10.55
2023-05-09T06:25:19.863Z,10.70
2023-05-09T06:27:46.224Z,10.25
2023-05-09T06:30:24.470Z,9.53
2023-05-09T06:32:54.946Z,9.55
2023-05-09T06:35:21.753Z,9.75
2023-05-09T06:37:49.050Z,10.40
2023-05-09T06:40:16.280Z,10.18
2023-05-09T06:42:42.660Z,10.47
2023-05-09T06:45:10.025Z,10.52
2023-05-09T06:47:36.458Z,10.02
2023-05-09T06:50:03.248Z,9.82
2023-05-09T06:52:29.784Z,10.75
2023-05-09T06:54:56.179Z,10.23
2023-05-09T06:57:22.664Z,10.27
2023-05-09T06:59:49.027Z,10.23
2023-05-09T07:02:15.937Z,10.68
2023-05-09T07:04:42.334Z,11.15
2023-05-09T07:07:08.939Z,10.73
2023-05-09T07:09:35.451Z,10.90
2023-05-09T07:12:01.892Z,11.40
2023-05-09T07:14:28.329Z,10.90
2023-05-09T07:17:02.228Z,10.15
2023-05-09T07:19:42.608Z,9.63
2023-05-09T07:22:09.042Z,10.65
2023-05-09T07:24:35.603Z,10.52
2023-05-09T07:27:05.089Z,12.30
2023-05-09T07:29:37.023Z,11.88
2023-05-09T07:32:06.700Z,10.63
2023-05-09T07:34:33.492Z,10.20
2023-05-09T07:36:59.947Z,11.13
2023-05-09T07:39:26.337Z,10.57
2023-05-09T07:41:52.718Z,10.52
2023-05-09T07:44:19.166Z,10.87
2023-05-09T07:46:45.645Z,11.20
2023-05-09T07:49:12.043Z,10.65
2023-05-09T07:51:38.396Z,10.85
2023-05-09T07:54:04.827Z,10.60
2023-05-09T07:56:31.621Z,10.53
2023-05-09T07:58:58.205Z,9.73
2023-05-09T08:01:24.709Z,10.85
2023-05-09T08:03:51.245Z,10.48
2023-05-09T08:06:17.825Z,10.30
2023-05-09T08:08:44.197Z,9.87
2023-05-09T08:11:12.630Z,10.57
2023-05-09T08:13:39.156Z,9.77
2023-05-09T08:16:05.891Z,10.07
2023-05-09T08:18:32.364Z,9.45
2023-05-09T08:20:59.780Z,8.87
2023-05-09T08:23:26.847Z,9.60
2023-05-09T08:25:56.546Z,9.00
2023-05-09T08:28:28.550Z,9.98
2023-05-09T08:30:55.998Z,9.77
2023-05-09T08:33:22.685Z,9.27
2023-05-09T08:35:53.265Z,9.05
2023-05-09T08:38:20.076Z,8.95
2023-05-09T08:40:46.960Z,8.98
2023-05-09T08:43:15.979Z,9.43
2023-05-09T08:45:47.780Z,7.50
2023-05-09T08:48:16.104Z,7.85
2023-05-09T08:50:43.377Z,7.50
2023-05-09T08:53:11.246Z,8.05
2023-05-09T08:55:38.683Z,6.35
2023-05-09T08:58:05.774Z,6.37
2023-05-09T09:00:33.541Z,7.35
2023-05-09T09:03:02.520Z,5.68
2023-05-09T09:05:41.164Z,5.47
2023-05-09T09:08:09.828Z,6.50
2023-05-09T09:10:41.015Z,5.83
2023-05-09T09:13:13.058Z,6.78
2023-05-09T09:15:43.050Z,6.57
2023-05-09T09:18:12.663Z,6.15
2023-05-09T09:20:59.583Z,6.13
2023-05-09T09:23:27.183Z,5.77
2023-05-09T09:26:02.359Z,5.75
2023-05-09T09:28:29.206Z,5.93
2023-05-09T09:30:55.993Z,5.70
2023-05-09T09:33:25.536Z,5.05
2023-05-09T09:35:54.305Z,5.13
2023-05-09T09:38:22.658Z,5.75
2023-05-09T09:40:54.102Z,5.40
2023-05-09T09:43:20.531Z,5.70
2023-05-09T09:45:51.477Z,4.63
2023-05-09T09:48:18.249Z,5.53
2023-05-09T09:50:47.812Z,5.10
2023-05-09T09:53:14.380Z,5.05
2023-05-09T09:55:50.055Z,4.40
2023-05-09T09:58:18.567Z,4.78
2023-05-09T10:00:46.129Z,4.90
2023-05-09T10:03:16.643Z,4.43
2023-05-09T10:05:43.378Z,4.15
2023-05-09T10:08:10.642Z,4.43
2023-05-09T10:10:41.129Z,4.60
2023-05-09T10:13:10.747Z,5.37
2023-05-09T10:15:52.194Z,4.57
2023-05-09T10:18:27.137Z,4.70
2023-05-09T10:20:56.494Z,4.55
2023-05-09T10:23:24.729Z,5.50
2023-05-09T10:26:18.618Z,5.13
2023-05-09T10:28:47.926Z,4.32
2023-05-09T10:31:27.431Z,4.50
2023-05-09T10:33:55.876Z,4.63
2023-05-09T10:36:25.957Z,5.10
2023-05-09T10:38:55.386Z,4.73
2023-05-09T10:41:22.738Z,4.68
2023-05-09T10:43:49.622Z,4.63
2023-05-09T10:46:16.910Z,4.90
2023-05-09T10:48:44.081Z,5.10
2023-05-09T10:51:12.647Z,5.00
2023-05-09T10:53:48.046Z,5.20
2023-05-09T10:56:24.792Z,5.22
2023-05-09T10:58:51.248Z,5.00
2023-05-09T11:01:30.694Z,4.63
2023-05-09T11:03:59.221Z,5.60
2023-05-09T11:06:49.195Z,5.47
2023-05-09T11:09:44.814Z,5.35
2023-05-09T11:12:13.332Z,5.60
2023-05-09T11:14:42.978Z,4.93
2023-05-09T11:17:29.627Z,5.23
2023-05-09T11:20:01.465Z,4.40
2023-05-09T11:22:32.123Z,4.13
2023-05-09T11:25:11.635Z,4.15
2023-05-09T11:27:45.119Z,4.05
2023-05-09T11:30:14.735Z,3.80
2023-05-09T11:33:03.551Z,4.28
2023-05-09T11:35:30.572Z,4.20
2023-05-09T11:38:05.541Z,4.82
2023-05-09T11:40:33.848Z,4.75
2023-05-09T11:43:01.908Z,4.53
2023-05-09T11:45:31.854Z,4.72
2023-05-09T11:47:59.249Z,4.90
2023-05-09T11:50:25.828Z,5.32
2023-05-09T11:52:53.690Z,4.70
2023-05-09T11:55:25.632Z,5.20
2023-05-09T11:57:53.621Z,5.63
2023-05-09T12:00:24.859Z,5.15
2023-05-09T12:02:53.262Z,5.07
2023-05-09T12:05:21.713Z,5.13
2023-05-09T12:07:49.065Z,4.90
2023-05-09T12:10:19.637Z,4.63
2023-05-09T12:12:47.796Z,5.30
2023-05-09T12:15:15.410Z,4.93
2023-05-09T12:17:43.776Z,5.60
2023-05-09T12:20:11.212Z,5.03
2023-05-09T12:22:38.037Z,4.85
2023-05-09T12:25:10.263Z,5.57
2023-05-09T12:27:40.544Z,5.28
2023-05-09T12:30:10.137Z,4.97
2023-05-09T12:32:39.366Z,4.93
2023-05-09T12:35:10.575Z,5.03
2023-05-09T12:37:37.608Z,4.72
2023-05-09T12:40:12.549Z,5.20
2023-05-09T12:42:43.018Z,5.13
2023-05-09T12:45:15.796Z,4.90
2023-05-09T12:47:42.488Z,5.22
2023-05-09T12:50:12.362Z,5.25
2023-05-09T12:52:50.742Z,4.57
2023-05-09T12:55:28.171Z,4.53
2023-05-09T12:58:00.779Z,4.70
2023-05-09T13:00:27.641Z,4.32
2023-05-09T13:02:54.186Z,4.30
2023-05-09T13:05:24.367Z,4.45
2023-05-09T13:07:52.511Z,4.72
2023-05-09T13:10:30.586Z,4.57
2023-05-09T13:12:57.405Z,4.80
2023-05-09T13:15:26.765Z,4.40
2023-05-09T13:17:54.044Z,4.28
2023-05-09T13:20:20.995Z,4.18
2023-05-09T13:22:47.411Z,4.80
2023-05-09T13:25:13.971Z,4.10
2023-05-09T13:27:40.345Z,5.15
2023-05-09T13:30:07.782Z,4.50
2023-05-09T13:32:34.972Z,4.15
2023-05-09T13:35:01.388Z,3.60
2023-05-09T13:37:28.207Z,4.20
2023-05-09T13:39:55.380Z,3.70
2023-05-09T13:42:28.297Z,3.70
2023-05-09T13:44:54.814Z,3.10
2023-05-09T13:47:21.303Z,3.20
2023-05-09T13:49:47.749Z,3.00
2023-05-09T13:52:16.361Z,3.15
2023-05-09T13:54:43.010Z,3.40
2023-05-09T13:57:09.499Z,3.10
2023-05-09T13:59:36.307Z,3.27
2023-05-09T14:02:02.973Z,3.60
2023-05-09T14:04:34.102Z,3.55
2023-05-09T14:07:01.303Z,3.40
2023-05-09T14:09:30.843Z,3.30
2023-05-09T14:11:57.397Z,3.47
2023-05-09T14:14:25.145Z,4.18
2023-05-09T14:16:51.978Z,3.70
2023-05-09T14:19:18.452Z,3.80
2023-05-09T14:21:47.270Z,3.22
2023-05-09T14:24:16.114Z,3.07
2023-05-09T14:26:43.277Z,3.00
2023-05-09T14:29:10.184Z,2.97
2023-05-09T14:31:37.003Z,2.85
2023-05-09T14:34:05.177Z,2.97
2023-05-09T14:36:32.493Z,2.80
2023-05-09T14:38:59.039Z,2.60
2023-05-09T14:41:25.528Z,2.63
2023-05-09T14:43:52.459Z,2.70
2023-05-09T14:46:19.140Z,2.53
2023-05-09T14:48:45.579Z,2.20
2023-05-09T14:51:12.194Z,2.35
2023-05-09T14:53:41.985Z,2.33
2023-05-09T14:56:11.316Z,2.95
2023-05-09T14:58:37.968Z,2.25
2023-05-09T15:01:04.529Z,2.50
2023-05-09T15:03:31.517Z,2.97
2023-05-09T15:06:01.468Z,2.45
2023-05-09T15:08:28.263Z,2.90
2023-05-09T15:10:54.726Z,2.53
2023-05-09T15:13:21.652Z,2.60
2023-05-09T15:15:48.325Z,2.88
2023-05-09T15:18:17.052Z,3.03
2023-05-09T15:20:43.764Z,3.17
2023-05-09T15:23:12.095Z,3.15
2023-05-09T15:25:41.443Z,2.87
2023-05-09T15:28:07.941Z,3.13
2023-05-09T15:30:38.138Z,2.80
2023-05-09T15:33:04.937Z,3.03
2023-05-09T15:35:31.716Z,2.50
2023-05-09T15:37:58.094Z,2.60
2023-05-09T15:40:24.686Z,2.72
2023-05-09T15:42:51.253Z,2.67
2023-05-09T15:45:17.725Z,2.80
2023-05-09T15:47:44.256Z,2.53
2023-05-09T15:50:11.924Z,2.50
2023-05-09T15:52:38.370Z,2.25
2023-05-09T15:55:05.288Z,2.40
2023-05-09T15:57:32.410Z,2.60
2023-05-09T15:59:58.880Z,2.53
2023-05-09T16:02:25.501Z,2.43
2023-05-09T16:04:52.530Z,2.00
2023-05-09T16:07:20.375Z,2.08
2023-05-09T16:09:47.336Z,1.92
2023-05-09T16:12:14.688Z,2.05
2023-05-09T16:14:41.528Z,1.80
2023-05-09T16:17:08.046Z,1.48
2023-05-09T16:19:36.102Z,2.00
2023-05-09T16:22:02.800Z,1.77
2023-05-09T16:24:29.398Z,1.75
2023-05-09T16:26:55.763Z,1.40
2023-05-09T16:29:22.695Z,1.40
2023-05-09T16:31:49.742Z,1.50
2023-05-09T16:34:16.201Z,1.88
2023-05-09T16:36:44.065Z,1.55
2023-05-09T16:39:10.475Z,1.60
2023-05-09T16:41:36.901Z,1.40
2023-05-09T16:44:03.423Z,1.75
2023-05-09T16:46:29.821Z,1.55
2023-05-09T16:48:56.242Z,1.77
2023-05-09T16:51:22.763Z,2.00
2023-05-09T16:53:49.129Z,2.08
2023-05-09T16:56:15.512Z,1.77
2023-05-09T16:58:44.413Z,1.83
2023-05-09T17:01:11.377Z,1.92
2023-05-09T17:03:37.864Z,1.63
2023-05-09T17:06:04.710Z,1.88
2023-05-09T17:08:31.597Z,1.63
2023-05-09T17:10:58.162Z,1.50
2023-05-09T17:13:24.802Z,1.55
2023-05-09T17:15:52.579Z,1.67
2023-05-09T17:18:33.287Z,1.50
2023-05-09T17:21:04.065Z,2.00
2023-05-09T17:23:30.590Z,2.00
2023-05-09T17:25:57.013Z,2.50
2023-05-09T17:28:23.840Z,2.10
2023-05-09T17:30:50.671Z,2.00
2023-05-09T17:33:17.490Z,1.73
2023-05-09T17:35:43.952Z,2.10
2023-05-09T17:38:10.351Z,2.13
2023-05-09T17:40:38.025Z,2.40
2023-05-09T17:43:04.497Z,2.30
2023-05-09T17:45:30.918Z,2.25
2023-05-09T17:47:57.777Z,2.38
2023-05-09T17:50:24.460Z,2.38
2023-05-09T17:52:50.856Z,3.00
2023-05-09T17:55:17.351Z,3.38
2023-05-09T17:57:43.901Z,3.38
2023-05-09T18:00:10.724Z,3.92
2023-05-09T18:02:37.333Z,3.95
2023-05-09T18:05:08.585Z,4.23
2023-05-09T18:07:34.947Z,4.60
2023-05-09T18:10:01.358Z,4.32
2023-05-09T18:12:29.019Z,4.30
2023-05-09T18:14:55.538Z,3.70
2023-05-09T18:17:22.431Z,3.73
2023-05-09T18:19:48.854Z,3.92
2023-05-09T18:22:15.599Z,4.00
2023-05-09T18:24:42.043Z,3.45
2023-05-09T18:27:08.538Z,3.85
2023-05-09T18:29:34.950Z,3.63
2023-05-09T18:32:02.036Z,3.72
2023-05-09T18:34:28.836Z,3.90
2023-05-09T18:36:55.825Z,3.47
2023-05-09T18:39:22.655Z,3.85
2023-05-09T18:41:49.234Z,3.80
2023-05-09T18:44:15.675Z,3.78
2023-05-09T18:46:42.097Z,3.63
2023-05-09T18:49:09.508Z,3.85
2023-05-09T18:51:36.519Z,3.58
2023-05-09T18:54:03.064Z,3.77
2023-05-09T18:56:29.447Z,4.07
2023-05-09T18:58:56.088Z,4.15
2023-05-09T19:01:24.292Z,4.10
2023-05-09T19:03:54.332Z,4.13
2023-05-09T19:06:21.744Z,4.20
2023-05-09T19:08:48.627Z,4.13
2023-05-09T19:11:16.037Z,4.40
2023-05-09T19:13:48.446Z,3.90
2023-05-09T19:16:17.125Z,4.22
2023-05-09T19:18:43.534Z,4.43
2023-05-09T19:21:10.291Z,4.45
2023-05-09T19:23:36.660Z,4.57
2023-05-09T19:26:03.201Z,4.60
2023-05-09T19:28:29.580Z,4.18
2023-05-09T19:30:57.270Z,4.30
2023-05-09T19:33:24.998Z,4.95
2023-05-09T19:35:51.699Z,4.90
2023-05-09T19:38:18.161Z,3.90
2023-05-09T19:40:44.641Z,3.63
2023-05-09T19:43:11.144Z,3.10
2023-05-09T19:45:37.531Z,3.05
2023-05-09T19:48:04.109Z,2.97
2023-05-09T19:50:31.040Z,3.20
2023-05-09T19:52:58.432Z,2.67
2023-05-09T19:55:24.890Z,2.53
2023-05-09T19:57:51.256Z,2.30
2023-05-09T20:00:18.313Z,2.58
2023-05-09T20:02:45.280Z,2.03
2023-05-09T20:05:12.039Z,2.22
2023-05-09T20:07:38.457Z,2.60
2023-05-09T20:10:05.320Z,2.38
2023-05-09T20:12:31.938Z,2.70
2023-05-09T20:14:58.385Z,2.40
2023-05-09T20:17:24.877Z,2.70
2023-05-09T20:19:51.423Z,3.40
2023-05-09T20:22:17.872Z,3.20
2023-05-09T20:24:44.309Z,3.10
2023-05-09T20:27:10.724Z,3.17
2023-05-09T20:29:37.246Z,3.20
2023-05-09T20:32:03.766Z,3.17
2023-05-09T20:34:30.498Z,2.65
2023-05-09T20:36:57.081Z,2.35
2023-05-09T20:39:24.707Z,2.15
2023-05-09T20:41:52.018Z,2.20
2023-05-09T20:44:19.224Z,2.50
2023-05-09T20:46:46.086Z,2.30
2023-05-09T20:49:12.698Z,2.42
2023-05-09T20:51:39.392Z,2.90
2023-05-09T20:54:06.032Z,2.50
2023-05-09T20:56:35.231Z,2.97
2023-05-09T20:59:03.669Z,3.03
2023-05-09T21:01:32.412Z,3.30
2023-05-09T21:03:59.356Z,3.42
2023-05-09T21:06:25.990Z,3.40
2023-05-09T21:08:52.459Z,3.43
2023-05-09T21:11:18.997Z,3.53
2023-05-09T21:13:45.480Z,3.58
2023-05-09T21:16:11.982Z,3.75
2023-05-09T21:18:38.506Z,3.60
2023-05-09T21:21:08.395Z,3.70
2023-05-09T21:23:35.182Z,4.38
2023-05-09T21:26:02.471Z,4.43
2023-05-09T21:28:29.450Z,4.57
2023-05-09T21:30:56.041Z,4.97
2023-05-09T21:33:22.885Z,4.80
2023-05-09T21:35:49.334Z,5.30
2023-05-09T21:38:15.840Z,5.68
2023-05-09T21:40:42.368Z,5.28
2023-05-09T21:43:08.972Z,6.05
2023-05-09T21:45:35.372Z,6.20
2023-05-09T21:48:01.851Z,5.82
2023-05-09T21:50:28.421Z,6.50
2023-05-09T21:52:56.197Z,6.13
2023-05-09T21:55:22.936Z,6.20
2023-05-09T21:57:49.364Z,6.00
2023-05-09T22:00:16.900Z,5.93
2023-05-09T22:02:43.850Z,5.97
2023-05-09T22:05:11.426Z,5.60
2023-05-09T22:07:38.032Z,6.20
2023-05-09T22:10:05.208Z,6.67
2023-05-09T22:12:31.847Z,5.75
2023-05-09T22:14:58.246Z,6.32
2023-05-09T22:17:24.758Z,7.22
2023-05-09T22:19:51.236Z,7.07
2023-05-09T22:22:17.626Z,6.83
2023-05-09T22:24:44.028Z,7.00
2023-05-09T22:27:10.998Z,6.63
2023-05-09T22:29:37.433Z,7.05
2023-05-09T22:32:04.267Z,6.60
2023-05-09T22:34:31.089Z,6.53
2023-05-09T22:36:57.486Z,7.55
2023-05-09T22:39:23.873Z,6.57
2023-05-09T22:41:50.262Z,7.05
2023-05-09T22:44:16.942Z,7.82
2023-05-09T22:46:43.354Z,7.27
2023-05-09T22:49:09.736Z,7.45
2023-05-09T22:51:36.520Z,6.70
2023-05-09T22:54:03.062Z,7.05
2023-05-09T22:56:29.401Z,7.75
2023-05-09T22:58:56.022Z,7.40
2023-05-09T23:01:22.625Z,7.40
2023-05-09T23:03:49.074Z,8.20
2023-05-09T23:06:15.612Z,7.63
2023-05-09T23:08:42.096Z,7.88
2023-05-09T23:11:08.920Z,8.43
2023-05-09T23:13:35.271Z,8.52
2023-05-09T23:16:01.782Z,9.10
2023-05-09T23:18:28.640Z,8.15
2023-05-09T23:20:55.053Z,7.88
2023-05-09T23:23:21.450Z,7.87
2023-05-09T23:25:47.858Z,8.48
2023-05-09T23:28:14.267Z,8.18
2023-05-09T23:30:40.788Z,7.82
2023-05-09T23:33:07.119Z,7.28
2023-05-09T23:35:33.555Z,7.67
2023-05-09T23:38:00.339Z,7.57
2023-05-09T23:40:26.732Z,8.48
2023-05-09T23:42:53.229Z,7.75
2023-05-09T23:45:19.886Z,8.45
2023-05-09T23:47:46.296Z,7.53
2023-05-09T23:50:13.308Z,8.43
2023-05-09T23:52:41.699Z,7.75
2023-05-09T23:55:08.754Z,7.60
2023-05-09T23:57:35.271Z,8.60
